sensor_id;sensor_type;location;lat;lon;timestamp;P1;durP1;ratioP1;P2;durP2;ratioP2
39452;SDS011;25154;-33.684;151.102;2023-08-17T00:03:37;1402.55;;;999.90;;
39452;SDS011;25154;-33.684;151.102;2023-08-17T00:08:39;1545.00;;;999.90;;
39452;SDS011;25154;-33.684;151.102;2023-08-17T00:13:43;1558.07;;;999.90;;
39452;SDS011;25154;-33.684;151.102;2023-08-17T00:18:45;1715.65;;;999.90;;
39452;SDS011;25154;-33.684;151.102;2023-08-17T00:23:49;1715.88;;;999.90;;
39452;SDS011;25154;-33.684;151.102;2023-08-17T00:28:51;1741.75;;;999.90;;
39452;SDS011;25154;-33.684;151.102;2023-08-17T00:33:53;1653.30;;;999.90;;
39452;SDS011;25154;-33.684;151.102;2023-08-17T00:38:55;1567.25;;;999.90;;
39452;SDS011;25154;-33.684;151.102;2023-08-17T00:43:59;1525.05;;;999.90;;
39452;SDS011;25154;-33.684;151.102;2023-08-17T00:49:01;1518.40;;;999.90;;
39452;SDS011;25154;-33.684;151.102;2023-08-17T00:54:04;1478.57;;;999.90;;
39452;SDS011;25154;-33.684;151.102;2023-08-17T00:59:06;1100.55;;;970.42;;
39452;SDS011;25154;-33.684;151.102;2023-08-17T01:04:09;984.17;;;880.92;;
39452;SDS011;25154;-33.684;151.102;2023-08-17T01:09:11;986.97;;;884.33;;
39452;SDS011;25154;-33.684;151.102;2023-08-17T01:14:26;764.13;;;685.38;;
39452;SDS011;25154;-33.684;151.102;2023-08-17T01:19:34;928.95;;;833.08;;
39452;SDS011;25154;-33.684;151.102;2023-08-17T01:24:38;612.83;;;545.35;;
39452;SDS011;25154;-33.684;151.102;2023-08-17T01:29:40;447.20;;;376.63;;
39452;SDS011;25154;-33.684;151.102;2023-08-17T01:34:50;395.65;;;292.40;;
39452;SDS011;25154;-33.684;151.102;2023-08-17T01:40:02;564.55;;;504.48;;
39452;SDS011;25154;-33.684;151.102;2023-08-17T01:45:05;679.08;;;609.70;;
39452;SDS011;25154;-33.684;151.102;2023-08-17T01:50:08;547.00;;;487.50;;
39452;SDS011;25154;-33.684;151.102;2023-08-17T01:55:11;507.80;;;453.38;;
39452;SDS011;25154;-33.684;151.102;2023-08-17T02:00:13;452.73;;;386.65;;
39452;SDS011;25154;-33.684;151.102;2023-08-17T02:05:16;312.63;;;157.00;;
39452;SDS011;25154;-33.684;151.102;2023-08-17T02:10:18;266.60;;;92.68;;
39452;SDS011;25154;-33.684;151.102;2023-08-17T02:15:21;300.55;;;133.30;;
39452;SDS011;25154;-33.684;151.102;2023-08-17T02:20:23;285.30;;;108.65;;
39452;SDS011;25154;-33.684;151.102;2023-08-17T02:25:25;240.55;;;60.85;;
39452;SDS011;25154;-33.684;151.102;2023-08-17T02:30:34;245.27;;;63.90;;
39452;SDS011;25154;-33.684;151.102;2023-08-17T02:35:36;229.35;;;51.30;;
39452;SDS011;25154;-33.684;151.102;2023-08-17T02:40:39;172.65;;;34.13;;
39452;SDS011;25154;-33.684;151.102;2023-08-17T02:45:41;183.35;;;36.20;;
39452;SDS011;25154;-33.684;151.102;2023-08-17T02:50:43;195.40;;;37.28;;
39452;SDS011;25154;-33.684;151.102;2023-08-17T02:55:46;242.50;;;46.60;;
39452;SDS011;25154;-33.684;151.102;2023-08-17T03:00:50;216.52;;;38.55;;
39452;SDS011;25154;-33.684;151.102;2023-08-17T03:05:53;203.02;;;35.50;;
39452;SDS011;25154;-33.684;151.102;2023-08-17T03:10:55;183.80;;;31.33;;
39452;SDS011;25154;-33.684;151.102;2023-08-17T03:15:57;193.88;;;33.47;;
39452;SDS011;25154;-33.684;151.102;2023-08-17T03:21:00;176.50;;;28.90;;
39452;SDS011;25154;-33.684;151.102;2023-08-17T03:26:02;196.00;;;27.52;;
39452;SDS011;25154;-33.684;151.102;2023-08-17T03:31:06;223.23;;;33.35;;
39452;SDS011;25154;-33.684;151.102;2023-08-17T03:36:11;209.95;;;30.17;;
39452;SDS011;25154;-33.684;151.102;2023-08-17T03:41:13;195.15;;;29.80;;
39452;SDS011;25154;-33.684;151.102;2023-08-17T03:46:16;204.23;;;28.90;;
39452;SDS011;25154;-33.684;151.102;2023-08-17T03:51:18;210.25;;;27.38;;
39452;SDS011;25154;-33.684;151.102;2023-08-17T03:56:21;211.13;;;28.25;;
39452;SDS011;25154;-33.684;151.102;2023-08-17T04:01:23;8.85;;;7.35;;
39452;SDS011;25154;-33.684;151.102;2023-08-17T04:06:25;0.90;;;0.90;;
39452;SDS011;25154;-33.684;151.102;2023-08-17T04:11:28;0.60;;;0.60;;
39452;SDS011;25154;-33.684;151.102;2023-08-17T04:16:30;1.92;;;1.65;;
39452;SDS011;25154;-33.684;151.102;2023-08-17T04:21:33;159.63;;;21.45;;
39452;SDS011;25154;-33.684;151.102;2023-08-17T04:26:35;164.15;;;20.48;;
39452;SDS011;25154;-33.684;151.102;2023-08-17T04:31:39;86.75;;;13.93;;
39452;SDS011;25154;-33.684;151.102;2023-08-17T04:36:41;0.90;;;0.90;;
39452;SDS011;25154;-33.684;151.102;2023-08-17T04:41:43;0.50;;;0.50;;
39452;SDS011;25154;-33.684;151.102;2023-08-17T04:46:46;0.38;;;0.38;;
39452;SDS011;25154;-33.684;151.102;2023-08-17T04:51:48;0.40;;;0.40;;
39452;SDS011;25154;-33.684;151.102;2023-08-17T04:56:50;0.40;;;0.40;;
39452;SDS011;25154;-33.684;151.102;2023-08-17T05:01:53;0.40;;;0.40;;
39452;SDS011;25154;-33.684;151.102;2023-08-17T05:06:55;0.40;;;0.40;;
39452;SDS011;25154;-33.684;151.102;2023-08-17T05:11:57;0.50;;;0.50;;
39452;SDS011;25154;-33.684;151.102;2023-08-17T05:17:01;0.47;;;0.47;;
39452;SDS011;25154;-33.684;151.102;2023-08-17T05:22:04;0.50;;;0.50;;
39452;SDS011;25154;-33.684;151.102;2023-08-17T05:27:06;0.40;;;0.40;;
39452;SDS011;25154;-33.684;151.102;2023-08-17T05:32:09;0.60;;;0.60;;
39452;SDS011;25154;-33.684;151.102;2023-08-17T05:37:11;0.40;;;0.40;;
39452;SDS011;25154;-33.684;151.102;2023-08-17T05:42:15;0.50;;;0.50;;
39452;SDS011;25154;-33.684;151.102;2023-08-17T05:47:18;0.40;;;0.40;;
39452;SDS011;25154;-33.684;151.102;2023-08-17T05:52:20;0.50;;;0.50;;
39452;SDS011;25154;-33.684;151.102;2023-08-17T05:57:22;0.50;;;0.50;;
39452;SDS011;25154;-33.684;151.102;2023-08-17T06:02:24;0.40;;;0.40;;
39452;SDS011;25154;-33.684;151.102;2023-08-17T06:07:27;0.50;;;0.50;;
39452;SDS011;25154;-33.684;151.102;2023-08-17T06:12:29;0.40;;;0.40;;
39452;SDS011;25154;-33.684;151.102;2023-08-17T06:17:32;0.30;;;0.30;;
39452;SDS011;25154;-33.684;151.102;2023-08-17T06:22:34;0.50;;;0.50;;
39452;SDS011;25154;-33.684;151.102;2023-08-17T06:27:37;0.70;;;0.70;;
39452;SDS011;25154;-33.684;151.102;2023-08-17T06:32:39;0.60;;;0.60;;
39452;SDS011;25154;-33.684;151.102;2023-08-17T06:37:41;1.00;;;1.00;;
39452;SDS011;25154;-33.684;151.102;2023-08-17T06:42:44;1.50;;;1.40;;
39452;SDS011;25154;-33.684;151.102;2023-08-17T06:47:46;2.70;;;2.40;;
39452;SDS011;25154;-33.684;151.102;2023-08-17T06:52:49;9.13;;;7.35;;
39452;SDS011;25154;-33.684;151.102;2023-08-17T06:57:51;67.65;;;13.70;;
39452;SDS011;25154;-33.684;151.102;2023-08-17T07:02:55;108.70;;;18.20;;
39452;SDS011;25154;-33.684;151.102;2023-08-17T07:07:57;137.38;;;22.58;;
39452;SDS011;25154;-33.684;151.102;2023-08-17T07:13:00;145.50;;;24.83;;
39452;SDS011;25154;-33.684;151.102;2023-08-17T07:18:04;155.25;;;27.83;;
39452;SDS011;25154;-33.684;151.102;2023-08-17T07:23:07;163.95;;;31.17;;
39452;SDS011;25154;-33.684;151.102;2023-08-17T07:28:09;166.98;;;33.28;;
39452;SDS011;25154;-33.684;151.102;2023-08-17T07:33:11;173.32;;;35.83;;
39452;SDS011;25154;-33.684;151.102;2023-08-17T07:38:16;173.05;;;39.60;;
39452;SDS011;25154;-33.684;151.102;2023-08-17T07:43:18;188.30;;;48.08;;
39452;SDS011;25154;-33.684;151.102;2023-08-17T07:48:21;197.35;;;64.03;;
39452;SDS011;25154;-33.684;151.102;2023-08-17T07:53:24;257.85;;;171.57;;
39452;SDS011;25154;-33.684;151.102;2023-08-17T07:58:27;779.90;;;709.00;;
39452;SDS011;25154;-33.684;151.102;2023-08-17T08:03:29;1218.13;;;999.90;;
39452;SDS011;25154;-33.684;151.102;2023-08-17T08:08:32;1359.10;;;999.90;;
39452;SDS011;25154;-33.684;151.102;2023-08-17T08:13:35;1461.85;;;999.90;;
39452;SDS011;25154;-33.684;151.102;2023-08-17T08:18:38;1999.90;;;999.90;;
39452;SDS011;25154;-33.684;151.102;2023-08-17T08:23:40;1999.90;;;999.90;;
39452;SDS011;25154;-33.684;151.102;2023-08-17T08:28:43;1999.90;;;999.90;;
39452;SDS011;25154;-33.684;151.102;2023-08-17T08:33:46;1999.90;;;999.90;;
39452;SDS011;25154;-33.684;151.102;2023-08-17T08:38:50;1999.90;;;999.90;;
39452;SDS011;25154;-33.684;151.102;2023-08-17T08:43:53;1999.90;;;999.90;;
39452;SDS011;25154;-33.684;151.102;2023-08-17T08:48:56;1999.90;;;999.90;;
39452;SDS011;25154;-33.684;151.102;2023-08-17T08:54:01;1999.90;;;999.90;;
39452;SDS011;25154;-33.684;151.102;2023-08-17T08:59:07;1999.90;;;999.90;;
39452;SDS011;25154;-33.684;151.102;2023-08-17T09:04:11;1999.90;;;999.90;;
39452;SDS011;25154;-33.684;151.102;2023-08-17T09:09:15;1999.90;;;999.90;;
39452;SDS011;25154;-33.684;151.102;2023-08-17T09:14:18;1999.90;;;999.90;;
39452;SDS011;25154;-33.684;151.102;2023-08-17T09:19:20;1999.90;;;999.90;;
39452;SDS011;25154;-33.684;151.102;2023-08-17T09:24:23;1999.90;;;999.90;;
39452;SDS011;25154;-33.684;151.102;2023-08-17T09:29:34;1999.90;;;999.90;;
39452;SDS011;25154;-33.684;151.102;2023-08-17T09:34:43;1999.90;;;999.90;;
39452;SDS011;25154;-33.684;151.102;2023-08-17T09:39:46;1999.90;;;999.90;;
39452;SDS011;25154;-33.684;151.102;2023-08-17T09:44:49;1999.90;;;999.90;;
39452;SDS011;25154;-33.684;151.102;2023-08-17T09:49:53;1999.90;;;999.90;;
39452;SDS011;25154;-33.684;151.102;2023-08-17T09:54:56;1999.90;;;999.90;;
39452;SDS011;25154;-33.684;151.102;2023-08-17T10:00:04;1999.90;;;999.90;;
39452;SDS011;25154;-33.684;151.102;2023-08-17T10:05:08;1999.90;;;999.90;;
39452;SDS011;25154;-33.684;151.102;2023-08-17T10:10:18;1999.90;;;999.90;;
39452;SDS011;25154;-33.684;151.102;2023-08-17T10:15:27;1999.90;;;999.90;;
39452;SDS011;25154;-33.684;151.102;2023-08-17T10:20:34;1999.90;;;999.90;;
39452;SDS011;25154;-33.684;151.102;2023-08-17T10:25:40;1999.90;;;999.90;;
39452;SDS011;25154;-33.684;151.102;2023-08-17T10:30:45;1999.90;;;999.90;;
39452;SDS011;25154;-33.684;151.102;2023-08-17T10:35:49;1999.90;;;999.90;;
39452;SDS011;25154;-33.684;151.102;2023-08-17T10:46:17;1999.90;;;999.90;;
39452;SDS011;25154;-33.684;151.102;2023-08-17T10:51:19;1999.90;;;999.90;;
39452;SDS011;25154;-33.684;151.102;2023-08-17T10:56:28;1999.90;;;999.90;;
39452;SDS011;25154;-33.684;151.102;2023-08-17T11:01:32;1999.90;;;999.90;;
39452;SDS011;25154;-33.684;151.102;2023-08-17T11:06:36;1999.90;;;999.90;;
39452;SDS011;25154;-33.684;151.102;2023-08-17T11:11:39;1999.90;;;999.90;;
39452;SDS011;25154;-33.684;151.102;2023-08-17T11:16:42;1999.90;;;999.90;;
39452;SDS011;25154;-33.684;151.102;2023-08-17T11:21:47;1999.90;;;999.90;;
39452;SDS011;25154;-33.684;151.102;2023-08-17T11:26:50;1999.90;;;999.90;;
39452;SDS011;25154;-33.684;151.102;2023-08-17T11:31:54;1999.90;;;999.90;;
39452;SDS011;25154;-33.684;151.102;2023-08-17T11:36:57;1999.90;;;999.90;;
39452;SDS011;25154;-33.684;151.102;2023-08-17T11:42:00;1999.90;;;999.90;;
39452;SDS011;25154;-33.684;151.102;2023-08-17T11:47:02;1999.90;;;999.90;;
39452;SDS011;25154;-33.684;151.102;2023-08-17T11:52:04;1999.90;;;999.90;;
39452;SDS011;25154;-33.684;151.102;2023-08-17T11:57:10;1999.90;;;999.90;;
39452;SDS011;25154;-33.684;151.102;2023-08-17T12:02:13;1999.90;;;999.90;;
39452;SDS011;25154;-33.684;151.102;2023-08-17T12:07:15;1999.90;;;999.90;;
39452;SDS011;25154;-33.684;151.102;2023-08-17T12:12:18;1999.90;;;999.90;;
39452;SDS011;25154;-33.684;151.102;2023-08-17T12:17:26;1999.90;;;999.90;;
39452;SDS011;25154;-33.684;151.102;2023-08-17T12:22:29;1999.90;;;999.90;;
39452;SDS011;25154;-33.684;151.102;2023-08-17T12:27:32;1999.90;;;999.90;;
39452;SDS011;25154;-33.684;151.102;2023-08-17T12:32:34;1999.90;;;999.90;;
39452;SDS011;25154;-33.684;151.102;2023-08-17T12:37:37;1999.90;;;999.90;;
39452;SDS011;25154;-33.684;151.102;2023-08-17T12:42:39;1999.90;;;999.90;;
39452;SDS011;25154;-33.684;151.102;2023-08-17T12:47:42;1999.90;;;999.90;;
39452;SDS011;25154;-33.684;151.102;2023-08-17T12:52:45;1999.90;;;999.90;;
39452;SDS011;25154;-33.684;151.102;2023-08-17T12:57:47;1999.90;;;999.90;;
39452;SDS011;25154;-33.684;151.102;2023-08-17T13:02:49;1999.90;;;999.90;;
39452;SDS011;25154;-33.684;151.102;2023-08-17T13:07:52;1999.90;;;999.90;;
39452;SDS011;25154;-33.684;151.102;2023-08-17T13:12:54;1999.90;;;999.90;;
39452;SDS011;25154;-33.684;151.102;2023-08-17T13:17:59;1999.90;;;999.90;;
39452;SDS011;25154;-33.684;151.102;2023-08-17T13:23:02;1999.90;;;999.90;;
39452;SDS011;25154;-33.684;151.102;2023-08-17T13:28:05;1999.90;;;999.90;;
39452;SDS011;25154;-33.684;151.102;2023-08-17T13:33:08;1999.90;;;999.90;;
39452;SDS011;25154;-33.684;151.102;2023-08-17T13:38:10;1999.90;;;999.90;;
39452;SDS011;25154;-33.684;151.102;2023-08-17T13:43:13;1999.90;;;999.90;;
39452;SDS011;25154;-33.684;151.102;2023-08-17T13:48:15;1999.90;;;999.90;;
39452;SDS011;25154;-33.684;151.102;2023-08-17T13:53:18;1999.90;;;999.90;;
39452;SDS011;25154;-33.684;151.102;2023-08-17T13:58:20;1999.90;;;999.90;;
39452;SDS011;25154;-33.684;151.102;2023-08-17T14:03:23;1999.90;;;999.90;;
39452;SDS011;25154;-33.684;151.102;2023-08-17T14:08:25;1999.90;;;999.90;;
39452;SDS011;25154;-33.684;151.102;2023-08-17T14:13:27;1999.90;;;999.90;;
39452;SDS011;25154;-33.684;151.102;2023-08-17T14:18:30;1999.90;;;999.90;;
39452;SDS011;25154;-33.684;151.102;2023-08-17T14:23:32;1999.90;;;999.90;;
39452;SDS011;25154;-33.684;151.102;2023-08-17T14:28:34;1999.90;;;999.90;;
39452;SDS011;25154;-33.684;151.102;2023-08-17T14:33:37;1999.90;;;999.90;;
39452;SDS011;25154;-33.684;151.102;2023-08-17T14:38:39;1999.90;;;999.90;;
39452;SDS011;25154;-33.684;151.102;2023-08-17T14:43:41;1999.90;;;999.90;;
39452;SDS011;25154;-33.684;151.102;2023-08-17T14:48:44;1999.90;;;999.90;;
39452;SDS011;25154;-33.684;151.102;2023-08-17T14:53:47;1999.90;;;999.90;;
39452;SDS011;25154;-33.684;151.102;2023-08-17T14:58:50;1999.90;;;999.90;;
39452;SDS011;25154;-33.684;151.102;2023-08-17T15:03:53;1999.90;;;999.90;;
39452;SDS011;25154;-33.684;151.102;2023-08-17T15:08:55;1999.90;;;999.90;;
39452;SDS011;25154;-33.684;151.102;2023-08-17T15:13:58;1999.90;;;999.90;;
39452;SDS011;25154;-33.684;151.102;2023-08-17T15:19:01;1999.90;;;999.90;;
39452;SDS011;25154;-33.684;151.102;2023-08-17T15:24:04;1999.90;;;999.90;;
39452;SDS011;25154;-33.684;151.102;2023-08-17T15:29:08;1999.90;;;999.90;;
39452;SDS011;25154;-33.684;151.102;2023-08-17T15:34:11;1999.90;;;999.90;;
39452;SDS011;25154;-33.684;151.102;2023-08-17T15:39:13;1999.90;;;999.90;;
39452;SDS011;25154;-33.684;151.102;2023-08-17T15:44:17;1999.90;;;999.90;;
39452;SDS011;25154;-33.684;151.102;2023-08-17T15:49:19;1999.90;;;999.90;;
39452;SDS011;25154;-33.684;151.102;2023-08-17T15:54:21;1999.90;;;999.90;;
39452;SDS011;25154;-33.684;151.102;2023-08-17T15:59:24;1999.90;;;999.90;;
39452;SDS011;25154;-33.684;151.102;2023-08-17T16:04:27;1999.90;;;999.90;;
39452;SDS011;25154;-33.684;151.102;2023-08-17T16:09:29;1999.90;;;999.90;;
39452;SDS011;25154;-33.684;151.102;2023-08-17T16:14:32;1999.90;;;999.90;;
39452;SDS011;25154;-33.684;151.102;2023-08-17T16:19:35;1999.90;;;999.90;;
39452;SDS011;25154;-33.684;151.102;2023-08-17T16:36:29;1999.90;;;999.90;;
39452;SDS011;25154;-33.684;151.102;2023-08-17T16:41:58;1999.90;;;999.90;;
39452;SDS011;25154;-33.684;151.102;2023-08-17T16:47:03;1999.90;;;999.90;;
39452;SDS011;25154;-33.684;151.102;2023-08-17T16:52:12;1999.90;;;999.90;;
39452;SDS011;25154;-33.684;151.102;2023-08-17T16:57:15;1999.90;;;999.90;;
39452;SDS011;25154;-33.684;151.102;2023-08-17T17:02:18;1999.90;;;999.90;;
39452;SDS011;25154;-33.684;151.102;2023-08-17T17:07:42;1999.90;;;999.90;;
39452;SDS011;25154;-33.684;151.102;2023-08-17T17:13:01;1999.90;;;999.90;;
39452;SDS011;25154;-33.684;151.102;2023-08-17T17:18:39;1999.90;;;999.90;;
39452;SDS011;25154;-33.684;151.102;2023-08-17T17:24:02;1999.90;;;999.90;;
39452;SDS011;25154;-33.684;151.102;2023-08-17T17:29:05;1999.90;;;999.90;;
39452;SDS011;25154;-33.684;151.102;2023-08-17T17:34:09;1999.90;;;999.90;;
39452;SDS011;25154;-33.684;151.102;2023-08-17T17:39:12;1999.90;;;999.90;;
39452;SDS011;25154;-33.684;151.102;2023-08-17T17:44:15;1999.90;;;999.90;;
39452;SDS011;25154;-33.684;151.102;2023-08-17T17:49:18;1999.90;;;999.90;;
39452;SDS011;25154;-33.684;151.102;2023-08-17T17:54:21;1999.90;;;999.90;;
39452;SDS011;25154;-33.684;151.102;2023-08-17T17:59:25;1999.90;;;999.90;;
39452;SDS011;25154;-33.684;151.102;2023-08-17T18:04:27;1999.90;;;999.90;;
39452;SDS011;25154;-33.684;151.102;2023-08-17T18:09:29;1999.90;;;999.90;;
39452;SDS011;25154;-33.684;151.102;2023-08-17T18:14:41;1999.90;;;999.90;;
39452;SDS011;25154;-33.684;151.102;2023-08-17T18:19:45;1999.90;;;999.90;;
39452;SDS011;25154;-33.684;151.102;2023-08-17T18:24:48;1999.90;;;999.90;;
39452;SDS011;25154;-33.684;151.102;2023-08-17T18:29:52;1999.90;;;999.90;;
39452;SDS011;25154;-33.684;151.102;2023-08-17T18:34:59;1999.90;;;999.90;;
39452;SDS011;25154;-33.684;151.102;2023-08-17T18:40:02;1999.90;;;999.90;;
39452;SDS011;25154;-33.684;151.102;2023-08-17T18:45:05;1999.90;;;999.90;;
39452;SDS011;25154;-33.684;151.102;2023-08-17T18:50:09;1999.90;;;999.90;;
39452;SDS011;25154;-33.684;151.102;2023-08-17T18:55:12;1999.90;;;999.90;;
39452;SDS011;25154;-33.684;151.102;2023-08-17T19:00:14;1999.90;;;999.90;;
39452;SDS011;25154;-33.684;151.102;2023-08-17T19:05:16;1999.90;;;999.90;;
39452;SDS011;25154;-33.684;151.102;2023-08-17T19:10:19;1999.90;;;999.90;;
39452;SDS011;25154;-33.684;151.102;2023-08-17T19:15:21;1999.90;;;999.90;;
39452;SDS011;25154;-33.684;151.102;2023-08-17T19:20:23;1999.90;;;999.90;;
39452;SDS011;25154;-33.684;151.102;2023-08-17T19:25:26;1999.90;;;999.90;;
39452;SDS011;25154;-33.684;151.102;2023-08-17T19:30:29;1999.90;;;999.90;;
39452;SDS011;25154;-33.684;151.102;2023-08-17T19:35:32;1999.90;;;999.90;;
39452;SDS011;25154;-33.684;151.102;2023-08-17T19:40:34;1999.90;;;999.90;;
39452;SDS011;25154;-33.684;151.102;2023-08-17T19:45:36;1999.90;;;999.90;;
39452;SDS011;25154;-33.684;151.102;2023-08-17T19:50:40;1999.90;;;999.90;;
39452;SDS011;25154;-33.684;151.102;2023-08-17T19:55:42;1999.90;;;999.90;;
39452;SDS011;25154;-33.684;151.102;2023-08-17T20:00:45;1999.90;;;999.90;;
39452;SDS011;25154;-33.684;151.102;2023-08-17T20:05:47;1999.90;;;999.90;;
39452;SDS011;25154;-33.684;151.102;2023-08-17T20:10:49;1999.90;;;999.90;;
39452;SDS011;25154;-33.684;151.102;2023-08-17T20:15:55;1999.90;;;999.90;;
39452;SDS011;25154;-33.684;151.102;2023-08-17T20:20:58;1999.90;;;999.90;;
39452;SDS011;25154;-33.684;151.102;2023-08-17T20:26:02;1999.90;;;999.90;;
39452;SDS011;25154;-33.684;151.102;2023-08-17T20:31:06;1999.90;;;999.90;;
39452;SDS011;25154;-33.684;151.102;2023-08-17T20:36:08;1999.90;;;999.90;;
39452;SDS011;25154;-33.684;151.102;2023-08-17T20:41:10;1999.90;;;999.90;;
39452;SDS011;25154;-33.684;151.102;2023-08-17T20:46:13;1999.90;;;999.90;;
39452;SDS011;25154;-33.684;151.102;2023-08-17T20:51:15;1999.90;;;999.90;;
39452;SDS011;25154;-33.684;151.102;2023-08-17T20:56:18;1999.90;;;999.90;;
39452;SDS011;25154;-33.684;151.102;2023-08-17T21:01:21;1999.90;;;999.90;;
39452;SDS011;25154;-33.684;151.102;2023-08-17T21:06:23;1999.90;;;999.90;;
39452;SDS011;25154;-33.684;151.102;2023-08-17T21:11:26;1999.90;;;999.90;;
39452;SDS011;25154;-33.684;151.102;2023-08-17T21:16:28;1999.90;;;999.90;;
39452;SDS011;25154;-33.684;151.102;2023-08-17T21:21:30;1999.90;;;999.90;;
39452;SDS011;25154;-33.684;151.102;2023-08-17T21:26:32;1999.90;;;999.90;;
39452;SDS011;25154;-33.684;151.102;2023-08-17T21:31:35;1999.90;;;999.90;;
39452;SDS011;25154;-33.684;151.102;2023-08-17T21:36:38;1999.90;;;999.90;;
39452;SDS011;25154;-33.684;151.102;2023-08-17T21:41:40;1999.90;;;999.90;;
39452;SDS011;25154;-33.684;151.102;2023-08-17T21:46:43;1999.90;;;999.90;;
39452;SDS011;25154;-33.684;151.102;2023-08-17T21:51:45;1999.90;;;999.90;;
39452;SDS011;25154;-33.684;151.102;2023-08-17T21:56:49;1999.90;;;999.90;;
39452;SDS011;25154;-33.684;151.102;2023-08-17T22:01:51;1999.90;;;999.90;;
39452;SDS011;25154;-33.684;151.102;2023-08-17T22:06:54;1999.90;;;999.90;;
39452;SDS011;25154;-33.684;151.102;2023-08-17T22:11:56;1999.90;;;999.90;;
39452;SDS011;25154;-33.684;151.102;2023-08-17T22:16:58;1999.90;;;999.90;;
39452;SDS011;25154;-33.684;151.102;2023-08-17T22:22:01;1999.90;;;999.90;;
39452;SDS011;25154;-33.684;151.102;2023-08-17T22:27:05;1999.90;;;999.90;;
39452;SDS011;25154;-33.684;151.102;2023-08-17T22:32:07;1999.90;;;999.90;;
39452;SDS011;25154;-33.684;151.102;2023-08-17T22:37:09;1999.90;;;999.90;;
39452;SDS011;25154;-33.684;151.102;2023-08-17T22:42:11;1999.90;;;999.90;;
39452;SDS011;25154;-33.684;151.102;2023-08-17T22:47:14;1999.90;;;999.90;;
39452;SDS011;25154;-33.684;151.102;2023-08-17T22:52:17;1999.90;;;999.90;;
39452;SDS011;25154;-33.684;151.102;2023-08-17T22:57:19;1999.90;;;999.90;;
39452;SDS011;25154;-33.684;151.102;2023-08-17T23:02:21;1999.90;;;999.90;;
39452;SDS011;25154;-33.684;151.102;2023-08-17T23:07:23;1999.90;;;999.90;;
39452;SDS011;25154;-33.684;151.102;2023-08-17T23:12:26;1999.90;;;999.90;;
39452;SDS011;25154;-33.684;151.102;2023-08-17T23:17:28;1999.90;;;999.90;;
39452;SDS011;25154;-33.684;151.102;2023-08-17T23:22:30;1999.90;;;999.90;;
39452;SDS011;25154;-33.684;151.102;2023-08-17T23:27:33;1999.90;;;999.90;;
39452;SDS011;25154;-33.684;151.102;2023-08-17T23:32:35;1999.90;;;999.90;;
39452;SDS011;25154;-33.684;151.102;2023-08-17T23:37:38;1999.90;;;999.90;;
39452;SDS011;25154;-33.684;151.102;2023-08-17T23:42:40;1999.90;;;999.90;;
39452;SDS011;25154;-33.684;151.102;2023-08-17T23:47:43;1999.90;;;999.90;;
39452;SDS011;25154;-33.684;151.102;2023-08-17T23:52:45;1999.90;;;999.90;;
39452;SDS011;25154;-33.684;151.102;2023-08-17T23:57:48;1999.90;;;999.90;;
